Time;durP1;ratioP1;P1;durP2;ratioP2;P2;SDS_P1;SDS_P2;PMS_P1;PMS_P2;Temp;Humidity;BMP_temperature;BMP_pressure;BME280_temperature;BME280_humidity;BME280_pressure;Samples;Min_cycle;Max_cycle;Signal;HPM_P1;HPM_P2
2023/03/21 00:01:52;;;;;;;1.08;0.98;;;10.80;99.90;;;;;;5031973;28;20235;-70
2023/03/21 00:04:20;;;;;;;0.70;0.70;;;10.90;99.90;;;;;;5032419;28;20236;-70
2023/03/21 00:06:49;;;;;;;0.80;0.70;;;10.90;99.90;;;;;;5032025;28;20205;-70
2023/03/21 00:09:17;;;;;;;0.60;0.50;;;10.90;99.90;;;;;;5041553;28;20231;-69
2023/03/21 00:11:46;;;;;;;1.35;0.60;;;10.90;99.90;;;;;;5050830;28;20214;-70
2023/03/21 00:14:18;;;;;;;0.60;0.55;;;11.00;99.90;;;;;;5031928;28;20232;-70
2023/03/21 00:16:49;;;;;;;0.63;0.50;;;10.90;99.90;;;;;;5031883;28;20204;-72
2023/03/21 00:19:21;;;;;;;0.68;0.57;;;10.90;99.90;;;;;;5032066;28;20205;-70
2023/03/21 00:21:51;;;;;;;0.80;0.80;;;10.80;99.90;;;;;;5031204;28;20225;-73
2023/03/21 00:24:37;;;;;;;1.05;1.05;;;10.80;99.90;;;;;;5032259;28;20640;-69
2023/03/21 00:27:05;;;;;;;0.70;0.60;;;10.70;99.90;;;;;;5031817;28;20633;-73
2023/03/21 00:29:53;;;;;;;1.10;1.00;;;10.80;99.90;;;;;;5031615;28;20219;-70
2023/03/21 00:32:21;;;;;;;1.20;1.02;;;10.80;99.90;;;;;;5032423;28;20291;-73
2023/03/21 00:34:51;;;;;;;0.98;0.60;;;10.80;99.90;;;;;;5031458;28;20204;-70
2023/03/21 00:37:39;;;;;;;1.52;1.10;;;10.70;99.90;;;;;;5031478;28;20228;-68
2023/03/21 00:40:09;;;;;;;0.60;0.47;;;10.70;99.90;;;;;;5051400;28;20246;-69
2023/03/21 00:42:46;;;;;;;0.63;0.52;;;10.70;99.90;;;;;;5042160;28;20747;-70
2023/03/21 00:45:15;;;;;;;0.65;0.65;;;10.80;99.90;;;;;;5031392;28;20239;-72
2023/03/21 00:47:43;;;;;;;0.60;0.55;;;10.80;99.90;;;;;;5031575;28;20238;-70
2023/03/21 00:50:12;;;;;;;0.70;0.65;;;10.90;99.90;;;;;;5031373;28;20205;-70
2023/03/21 00:52:40;;;;;;;0.90;0.50;;;10.90;99.90;;;;;;5031195;28;20270;-71
2023/03/21 00:55:13;;;;;;;0.60;0.50;;;10.90;99.90;;;;;;5031264;28;20288;-69
2023/03/21 00:57:41;;;;;;;0.60;0.43;;;11.00;99.90;;;;;;5030867;28;20267;-69
2023/03/21 01:00:16;;;;;;;0.70;0.60;;;11.00;99.90;;;;;;5031409;28;20207;-69
2023/03/21 01:02:55;;;;;;;0.70;0.50;;;11.00;99.90;;;;;;5031065;28;20636;-69
2023/03/21 01:08:23;;;;;;;1.13;1.02;;;11.20;99.90;;;;;;5032845;28;20330;-69
2023/03/21 01:11:03;;;;;;;1.08;1.00;;;11.20;99.90;;;;;;5058873;28;20202;-69
2023/03/21 01:13:31;;;;;;;0.60;0.50;;;11.20;99.90;;;;;;5035863;28;20295;-69
2023/03/21 01:16:05;;;;;;;0.60;0.60;;;11.20;99.90;;;;;;5031104;28;20258;-69
2023/03/21 01:18:35;;;;;;;0.50;0.40;;;11.30;99.90;;;;;;5030960;28;20312;-69
2023/03/21 01:21:08;;;;;;;0.60;0.50;;;11.30;99.90;;;;;;5030751;28;20232;-69
2023/03/21 01:23:36;;;;;;;0.60;0.40;;;11.30;99.90;;;;;;5031521;28;20224;-72
2023/03/21 01:26:04;;;;;;;0.80;0.60;;;11.20;99.90;;;;;;5031060;28;20295;-75
2023/03/21 01:28:34;;;;;;;1.30;0.95;;;11.30;99.90;;;;;;5030792;28;20303;-74
2023/03/21 01:31:03;;;;;;;0.55;0.43;;;11.30;99.90;;;;;;5038671;28;20636;-75
2023/03/21 01:33:32;;;;;;;1.23;0.65;;;11.30;99.90;;;;;;5030877;28;20235;-70
2023/03/21 01:36:00;;;;;;;0.93;0.60;;;11.20;99.90;;;;;;5030723;28;20565;-70
2023/03/21 01:38:41;;;;;;;0.50;0.40;;;11.20;99.90;;;;;;5033833;28;20282;-69
2023/03/21 01:41:18;;;;;;;0.60;0.50;;;11.20;99.90;;;;;;5050576;28;20654;-72
2023/03/21 01:43:47;;;;;;;0.50;0.40;;;11.20;99.90;;;;;;5033242;28;20299;-72
2023/03/21 01:46:27;;;;;;;0.63;0.60;;;11.10;99.90;;;;;;5030718;28;20228;-73
2023/03/21 01:49:10;;;;;;;0.60;0.50;;;11.10;99.90;;;;;;5030324;28;20289;-74
2023/03/21 01:51:43;;;;;;;0.80;0.60;;;11.00;99.90;;;;;;5030758;28;20291;-73
2023/03/21 01:54:18;;;;;;;0.60;0.60;;;10.90;99.90;;;;;;5030788;28;20287;-72
2023/03/21 01:56:47;;;;;;;0.82;0.80;;;10.90;99.90;;;;;;5031515;28;20725;-75
2023/03/21 01:59:21;;;;;;;0.80;0.60;;;10.90;99.90;;;;;;4991697;28;20233;-72
2023/03/21 02:01:50;;;;;;;0.73;0.60;;;10.80;99.90;;;;;;4991068;28;20256;-72
2023/03/21 02:04:26;;;;;;;0.60;0.50;;;10.80;99.90;;;;;;4991217;28;20676;-72
2023/03/21 02:07:00;;;;;;;0.50;0.38;;;10.70;99.90;;;;;;4991244;28;20264;-75
2023/03/21 02:09:33;;;;;;;0.88;0.82;;;10.70;99.90;;;;;;5001413;28;20732;-70
2023/03/21 02:12:01;;;;;;;1.02;0.60;;;10.70;99.90;;;;;;5000155;28;20296;-73
2023/03/21 02:14:33;;;;;;;0.70;0.60;;;10.70;99.90;;;;;;4992323;28;20214;-71
2023/03/21 02:17:07;;;;;;;1.02;0.57;;;10.60;99.90;;;;;;4990887;28;20240;-70
2023/03/21 02:20:14;;;;;;;0.60;0.50;;;10.60;99.90;;;;;;4991168;28;20718;-70
2023/03/21 02:23:16;;;;;;;1.13;1.02;;;10.50;99.90;;;;;;4991111;28;20320;-70
2023/03/21 02:26:16;;;;;;;0.60;0.50;;;10.50;99.90;;;;;;4994656;28;20663;-70
2023/03/21 02:28:49;;;;;;;0.75;0.60;;;10.50;99.90;;;;;;4990843;28;20276;-72
2023/03/21 02:31:34;;;;;;;1.00;0.70;;;10.40;99.90;;;;;;4991563;28;20311;-70
2023/03/21 02:34:26;;;;;;;1.90;1.52;;;10.20;99.90;;;;;;4990768;28;20244;-72
2023/03/21 02:37:19;;;;;;;0.60;0.60;;;10.20;99.90;;;;;;4990834;28;20256;-71
2023/03/21 02:40:08;;;;;;;0.93;0.50;;;10.10;99.90;;;;;;4996729;28;20268;-71
2023/03/21 02:42:48;;;;;;;0.63;0.52;;;10.00;99.90;;;;;;4995851;28;20642;-70
2023/03/21 02:45:30;;;;;;;0.70;0.60;;;10.00;99.90;;;;;;4994556;28;20214;-72
2023/03/21 02:48:03;;;;;;;0.93;0.75;;;9.90;99.90;;;;;;4995833;28;20262;-70
2023/03/21 02:50:36;;;;;;;0.95;0.68;;;9.90;99.90;;;;;;4994068;28;20209;-70
2023/03/21 02:53:10;;;;;;;0.70;0.70;;;10.00;99.90;;;;;;4994493;28;20210;-70
2023/03/21 02:55:42;;;;;;;1.25;1.15;;;9.90;99.90;;;;;;4994375;28;20217;-70
2023/03/21 02:58:13;;;;;;;0.65;0.60;;;9.90;99.90;;;;;;5015709;28;20287;-70
2023/03/21 03:00:42;;;;;;;0.70;0.52;;;10.00;99.90;;;;;;5033542;28;20209;-70
2023/03/21 03:03:11;;;;;;;0.70;0.60;;;10.00;99.90;;;;;;5033180;28;20259;-70
2023/03/21 03:05:55;;;;;;;1.83;0.57;;;10.00;99.90;;;;;;5034795;28;20228;-70
2023/03/21 03:08:33;;;;;;;1.58;1.48;;;10.00;99.90;;;;;;5035283;28;20252;-70
2023/03/21 03:11:27;;;;;;;1.20;0.85;;;10.00;99.90;;;;;;5057629;28;20221;-70
2023/03/21 03:14:11;;;;;;;0.60;0.50;;;10.00;99.90;;;;;;5037735;28;20231;-70
2023/03/21 03:17:09;;;;;;;0.70;0.70;;;10.00;99.90;;;;;;5033116;28;20573;-70
2023/03/21 03:19:50;;;;;;;1.35;1.25;;;10.00;99.90;;;;;;5033111;28;20291;-70
2023/03/21 03:22:24;;;;;;;0.82;0.82;;;10.00;99.90;;;;;;5033688;28;20637;-71
2023/03/21 03:24:58;;;;;;;0.73;0.63;;;10.00;99.90;;;;;;5032897;28;20202;-71
2023/03/21 03:27:43;;;;;;;1.25;1.02;;;10.10;99.90;;;;;;5032802;28;20594;-71
2023/03/21 03:30:13;;;;;;;0.60;0.60;;;10.10;99.90;;;;;;5033008;28;20303;-74
2023/03/21 03:32:46;;;;;;;0.95;0.93;;;10.10;99.90;;;;;;5032869;28;20228;-73
2023/03/21 03:35:18;;;;;;;0.60;0.50;;;10.20;99.90;;;;;;5032744;28;20204;-71
2023/03/21 03:37:49;;;;;;;0.80;0.65;;;10.30;99.90;;;;;;5034214;28;20241;-71
2023/03/21 03:40:23;;;;;;;0.88;0.60;;;10.40;99.90;;;;;;5050169;28;20287;-70
2023/03/21 03:42:53;;;;;;;0.80;0.80;;;10.40;99.90;;;;;;5035631;28;20307;-70
2023/03/21 03:45:28;;;;;;;0.60;0.50;;;10.50;99.90;;;;;;5032440;28;20327;-71
2023/03/21 03:48:04;;;;;;;0.70;0.50;;;10.50;99.90;;;;;;5032482;28;20228;-71
2023/03/21 03:50:38;;;;;;;0.60;0.40;;;10.60;99.90;;;;;;5032638;28;20222;-72
2023/03/21 03:53:16;;;;;;;0.70;0.50;;;10.60;99.90;;;;;;5032242;28;20203;-73
2023/03/21 03:55:48;;;;;;;1.55;1.25;;;10.50;99.90;;;;;;5034136;28;20216;-70
2023/03/21 03:58:18;;;;;;;1.13;0.43;;;10.40;99.90;;;;;;5032191;28;20319;-71
2023/03/21 04:00:51;;;;;;;0.80;0.80;;;10.40;99.90;;;;;;5032267;28;20212;-74
2023/03/21 04:03:19;;;;;;;0.85;0.60;;;10.30;99.90;;;;;;5032173;28;20225;-73
2023/03/21 04:05:47;;;;;;;0.60;0.50;;;10.40;99.90;;;;;;5032093;28;20744;-73
2023/03/21 04:08:17;;;;;;;1.23;0.90;;;10.50;99.90;;;;;;5032864;28;20764;-72
2023/03/21 04:10:45;;;;;;;0.60;0.50;;;10.60;99.90;;;;;;5052913;28;20445;-71
2023/03/21 04:13:14;;;;;;;0.88;0.68;;;10.50;99.90;;;;;;5037992;28;20681;-71
2023/03/21 04:15:44;;;;;;;0.70;0.70;;;10.60;99.90;;;;;;5037584;28;20709;-71
2023/03/21 04:18:12;;;;;;;0.65;0.60;;;10.60;99.90;;;;;;5032258;28;20274;-74
2023/03/21 04:20:40;;;;;;;0.70;0.63;;;10.70;99.90;;;;;;5031954;28;20208;-71
2023/03/21 04:23:07;;;;;;;0.70;0.60;;;10.70;99.90;;;;;;5031417;28;20326;-70
2023/03/21 04:25:36;;;;;;;0.80;0.60;;;10.60;99.90;;;;;;5031602;28;20208;-71
2023/03/21 04:28:15;;;;;;;0.90;0.90;;;10.60;99.90;;;;;;5031523;28;20228;-71
2023/03/21 04:30:45;;;;;;;0.60;0.50;;;10.60;99.90;;;;;;5032265;28;20243;-71
2023/03/21 04:33:27;;;;;;;0.60;0.50;;;10.60;99.90;;;;;;5031614;28;20200;-72
2023/03/21 04:35:57;;;;;;;0.60;0.50;;;10.50;99.90;;;;;;5031216;28;20212;-71
2023/03/21 04:38:29;;;;;;;0.60;0.47;;;10.40;99.90;;;;;;5031497;28;20228;-71
2023/03/21 04:40:57;;;;;;;0.60;0.50;;;10.20;99.90;;;;;;5031304;28;20302;-73
2023/03/21 04:43:27;;;;;;;1.30;1.20;;;10.10;99.90;;;;;;5031345;28;20303;-74
2023/03/21 04:45:55;;;;;;;0.60;0.50;;;10.10;99.90;;;;;;5047398;28;20377;-73
2023/03/21 04:48:24;;;;;;;0.90;0.52;;;10.00;99.90;;;;;;5039033;28;20228;-71
2023/03/21 04:50:52;;;;;;;0.70;0.70;;;9.80;99.90;;;;;;5031381;28;20212;-71
2023/03/21 04:53:20;;;;;;;0.80;0.73;;;9.60;99.90;;;;;;5032654;28;20574;-71
2023/03/21 04:55:48;;;;;;;0.70;0.60;;;9.30;99.90;;;;;;5031298;28;20722;-71
2023/03/21 04:58:20;;;;;;;0.88;0.75;;;9.10;99.90;;;;;;5031173;28;20236;-71
2023/03/21 05:00:51;;;;;;;0.80;0.80;;;9.30;99.90;;;;;;5031387;28;20236;-71
2023/03/21 05:03:20;;;;;;;0.80;0.70;;;9.50;99.90;;;;;;5033653;28;20209;-71
2023/03/21 05:05:49;;;;;;;1.40;1.00;;;9.60;99.90;;;;;;5030736;28;20216;-74
2023/03/21 05:08:16;;;;;;;1.17;0.70;;;9.60;99.90;;;;;;5030903;28;20270;-73
2023/03/21 05:10:45;;;;;;;0.80;0.75;;;9.70;99.90;;;;;;5031177;28;20208;-71
2023/03/21 05:13:13;;;;;;;0.90;0.90;;;9.80;99.90;;;;;;5030850;28;20671;-74
2023/03/21 05:15:40;;;;;;;0.90;0.80;;;9.90;99.90;;;;;;5047773;28;20837;-71
2023/03/21 05:18:10;;;;;;;0.63;0.63;;;10.00;99.90;;;;;;5040579;28;20255;-71
2023/03/21 05:20:41;;;;;;;0.60;0.57;;;10.10;99.90;;;;;;5038148;28;20250;-71
2023/03/21 05:23:10;;;;;;;0.90;0.75;;;10.10;99.90;;;;;;5032110;28;20330;-74
2023/03/21 05:25:39;;;;;;;0.93;0.73;;;10.20;99.90;;;;;;5030652;28;20263;-72
2023/03/21 05:28:08;;;;;;;1.90;0.90;;;10.20;99.90;;;;;;5037187;28;20302;-72
2023/03/21 05:30:35;;;;;;;0.70;0.50;;;10.20;99.90;;;;;;5030799;28;20734;-75
2023/03/21 05:33:04;;;;;;;0.60;0.52;;;10.30;99.90;;;;;;5030633;28;20235;-71
2023/03/21 05:35:33;;;;;;;0.70;0.60;;;10.40;99.90;;;;;;5030808;28;20200;-71
2023/03/21 05:38:01;;;;;;;0.80;0.80;;;10.50;99.90;;;;;;5033272;28;20274;-71
2023/03/21 05:40:29;;;;;;;0.82;0.73;;;10.50;99.90;;;;;;5030724;28;20215;-71
2023/03/21 05:42:57;;;;;;;0.60;0.60;;;10.50;99.90;;;;;;5030401;28;20294;-72
2023/03/21 05:45:26;;;;;;;0.80;0.68;;;10.60;99.90;;;;;;5039677;28;20307;-71
2023/03/21 05:47:53;;;;;;;0.65;0.60;;;10.60;99.90;;;;;;5030979;28;20306;-71
2023/03/21 05:50:21;;;;;;;0.60;0.57;;;10.60;99.90;;;;;;5039595;28;20675;-70
2023/03/21 05:52:51;;;;;;;0.60;0.40;;;10.60;99.90;;;;;;5039346;28;20239;-73
2023/03/21 05:55:19;;;;;;;0.68;0.63;;;10.50;99.90;;;;;;5037667;28;20204;-70
2023/03/21 05:57:47;;;;;;;0.82;0.65;;;10.60;99.90;;;;;;5033015;28;20707;-71
2023/03/21 06:00:17;;;;;;;0.90;0.60;;;10.70;99.90;;;;;;5030445;28;20291;-75
2023/03/21 06:02:45;;;;;;;1.33;1.00;;;10.70;99.90;;;;;;5030719;28;20288;-71
2023/03/21 06:05:13;;;;;;;0.90;0.70;;;10.70;99.90;;;;;;5030229;28;20235;-71
2023/03/21 06:07:40;;;;;;;1.00;0.70;;;10.70;99.90;;;;;;5032856;28;20657;-71
2023/03/21 06:10:11;;;;;;;0.80;0.80;;;10.70;99.90;;;;;;5032403;28;20284;-71
2023/03/21 06:12:39;;;;;;;0.60;0.40;;;10.80;99.90;;;;;;5036543;28;20290;-72
2023/03/21 06:15:08;;;;;;;0.50;0.40;;;10.80;99.90;;;;;;5043757;28;20266;-69
2023/03/21 06:17:36;;;;;;;1.10;0.60;;;10.90;99.90;;;;;;5039590;28;20314;-73
2023/03/21 06:20:07;;;;;;;0.60;0.50;;;10.90;99.90;;;;;;5042097;28;20207;-69
2023/03/21 06:22:35;;;;;;;1.60;0.80;;;11.00;99.90;;;;;;5047630;28;20699;-72
2023/03/21 06:25:06;;;;;;;1.10;0.80;;;11.10;99.90;;;;;;5047328;28;20270;-68
2023/03/21 06:27:35;;;;;;;0.65;0.63;;;11.00;99.90;;;;;;5046872;28;20303;-69
2023/03/21 06:30:04;;;;;;;0.85;0.70;;;11.10;99.90;;;;;;5042226;28;20403;-70
2023/03/21 06:32:33;;;;;;;0.60;0.50;;;11.00;99.90;;;;;;5044220;28;20279;-69
2023/03/21 06:35:01;;;;;;;0.52;0.45;;;11.00;99.90;;;;;;5044816;28;20204;-70
2023/03/21 06:37:28;;;;;;;0.68;0.68;;;11.00;99.90;;;;;;5046057;28;20226;-74
2023/03/21 06:39:56;;;;;;;0.60;0.60;;;11.00;99.90;;;;;;5046411;28;20213;-69
2023/03/21 06:42:24;;;;;;;0.70;0.60;;;11.00;99.90;;;;;;5044803;28;20263;-69
2023/03/21 06:44:53;;;;;;;1.08;0.65;;;11.10;99.90;;;;;;5049309;28;20215;-70
2023/03/21 06:47:21;;;;;;;1.33;0.70;;;11.10;99.90;;;;;;5038802;28;20315;-69
2023/03/21 06:49:50;;;;;;;0.60;0.45;;;11.20;99.90;;;;;;5038490;28;20287;-69
2023/03/21 06:52:18;;;;;;;0.80;0.50;;;11.30;99.90;;;;;;5043491;28;20223;-73
2023/03/21 06:54:46;;;;;;;0.60;0.60;;;11.30;99.90;;;;;;5044335;28;20198;-68
2023/03/21 06:57:14;;;;;;;0.75;0.70;;;11.50;99.90;;;;;;5047812;28;20658;-69
2023/03/21 06:59:42;;;;;;;0.60;0.50;;;11.50;99.90;;;;;;5046087;28;20286;-69
2023/03/21 07:02:11;;;;;;;1.10;1.00;;;11.70;99.90;;;;;;5040170;28;20200;-66
2023/03/21 07:04:39;;;;;;;0.60;0.40;;;11.70;99.90;;;;;;5041616;28;20203;-66
2023/03/21 07:07:07;;;;;;;1.60;1.50;;;11.60;99.90;;;;;;5047576;28;20282;-67
2023/03/21 07:09:35;;;;;;;2.75;1.00;;;11.50;99.90;;;;;;5048487;28;21334;-70
2023/03/21 07:12:03;;;;;;;0.80;0.60;;;11.50;99.90;;;;;;5041201;28;20211;-67
2023/03/21 07:14:33;;;;;;;0.60;0.60;;;11.40;99.90;;;;;;5041143;28;20291;-71
2023/03/21 07:17:01;;;;;;;0.60;0.55;;;11.20;99.90;;;;;;5045243;28;20200;-69
2023/03/21 07:19:30;;;;;;;0.73;0.73;;;11.00;99.90;;;;;;5048489;28;20204;-69
2023/03/21 07:22:00;;;;;;;0.90;0.77;;;11.00;99.90;;;;;;5043645;28;20292;-66
2023/03/21 07:24:28;;;;;;;1.95;0.40;;;11.00;99.90;;;;;;5032669;28;20228;-68
2023/03/21 07:26:56;;;;;;;0.60;0.50;;;11.10;99.90;;;;;;5032588;28;20317;-66
2023/03/21 07:29:24;;;;;;;1.02;0.80;;;11.20;99.90;;;;;;5032649;28;20300;-66
2023/03/21 07:31:52;;;;;;;0.80;0.68;;;11.30;99.90;;;;;;5033280;28;20485;-66
2023/03/21 07:34:20;;;;;;;0.60;0.47;;;11.40;99.90;;;;;;5032767;28;20274;-66
2023/03/21 07:36:49;;;;;;;0.60;0.50;;;11.40;99.90;;;;;;5032739;28;20235;-66
2023/03/21 07:39:18;;;;;;;1.00;0.70;;;11.50;99.90;;;;;;5032785;28;20237;-66
2023/03/21 07:41:46;;;;;;;0.65;0.65;;;11.60;99.90;;;;;;5032800;28;20209;-66
2023/03/21 07:44:14;;;;;;;1.33;0.75;;;11.70;99.90;;;;;;5036248;28;20199;-66
2023/03/21 07:46:42;;;;;;;1.85;1.15;;;11.70;99.90;;;;;;5043142;28;20215;-67
2023/03/21 07:49:10;;;;;;;0.85;0.50;;;11.80;99.90;;;;;;5045854;28;20319;-66
2023/03/21 07:51:38;;;;;;;0.60;0.40;;;11.90;99.90;;;;;;5032588;28;20287;-67
2023/03/21 07:54:07;;;;;;;0.63;0.60;;;11.90;99.90;;;;;;5032345;28;20288;-66
2023/03/21 07:56:35;;;;;;;0.60;0.40;;;12.10;99.90;;;;;;5032375;28;20667;-67
2023/03/21 07:59:04;;;;;;;2.10;0.55;;;12.20;99.90;;;;;;5042288;22;20225;-65
2023/03/21 08:01:32;;;;;;;0.60;0.40;;;12.30;99.90;;;;;;5012158;28;20665;-65
2023/03/21 08:04:00;;;;;;;0.60;0.50;;;12.40;99.90;;;;;;5012641;28;20233;-66
2023/03/21 08:06:31;;;;;;;0.57;0.45;;;12.40;99.90;;;;;;5012434;28;20666;-66
2023/03/21 08:08:59;;;;;;;0.60;0.55;;;12.30;99.90;;;;;;5013307;28;20622;-66
2023/03/21 08:11:30;;;;;;;0.80;0.50;;;12.30;99.90;;;;;;5012354;28;20296;-66
2023/03/21 08:14:00;;;;;;;0.65;0.63;;;12.50;99.90;;;;;;5012411;28;20202;-63
2023/03/21 08:16:37;;;;;;;0.85;0.85;;;12.50;99.90;;;;;;5024721;28;20200;-63
2023/03/21 08:19:05;;;;;;;0.60;0.45;;;12.60;99.90;;;;;;5015476;28;20225;-63
2023/03/21 08:21:33;;;;;;;0.75;0.50;;;12.70;99.90;;;;;;5012286;28;20719;-64
2023/03/21 08:24:01;;;;;;;0.60;0.60;;;12.80;99.90;;;;;;5012259;28;20209;-63
2023/03/21 08:26:31;;;;;;;0.60;0.52;;;12.90;99.90;;;;;;5011979;28;20248;-64
2023/03/21 08:28:59;;;;;;;0.63;0.60;;;12.80;99.90;;;;;;5012321;28;20225;-65
2023/03/21 08:31:27;;;;;;;0.82;0.77;;;12.70;99.90;;;;;;5012072;28;20233;-65
2023/03/21 08:33:55;;;;;;;1.10;0.80;;;12.80;99.90;;;;;;5012070;28;20292;-65
2023/03/21 08:36:24;;;;;;;0.65;0.57;;;12.80;99.90;;;;;;5011886;28;20560;-66
2023/03/21 08:38:55;;;;;;;1.15;0.88;;;12.90;99.90;;;;;;5011859;28;20231;-65
2023/03/21 08:41:24;;;;;;;1.10;0.90;;;12.90;99.90;;;;;;5011162;28;20627;-66
2023/03/21 08:43:54;;;;;;;0.60;0.50;;;12.80;99.90;;;;;;5011870;28;20591;-66
2023/03/21 08:46:21;;;;;;;0.80;0.80;;;12.90;99.90;;;;;;5021737;28;20228;-65
2023/03/21 08:48:49;;;;;;;0.70;0.63;;;12.80;99.90;;;;;;5017513;28;20709;-65
2023/03/21 08:51:17;;;;;;;0.70;0.57;;;12.90;99.90;;;;;;5011684;28;20240;-65
2023/03/21 08:53:45;;;;;;;0.70;0.60;;;12.80;99.90;;;;;;5011690;28;20224;-65
2023/03/21 08:56:13;;;;;;;0.90;0.90;;;12.80;99.90;;;;;;5011838;28;20212;-68
2023/03/21 08:58:41;;;;;;;3.10;1.05;;;12.60;99.90;;;;;;5011366;28;20324;-66
2023/03/21 09:01:14;;;;;;;0.60;0.52;;;12.60;99.90;;;;;;5011507;28;20263;-65
2023/03/21 09:03:42;;;;;;;0.93;0.75;;;12.70;99.90;;;;;;5011594;28;20255;-66
2023/03/21 09:06:13;;;;;;;0.63;0.45;;;12.80;99.90;;;;;;5011399;28;20297;-66
2023/03/21 09:08:42;;;;;;;1.80;1.13;;;12.80;99.90;;;;;;5011673;28;20586;-66
2023/03/21 09:11:10;;;;;;;0.80;0.73;;;12.90;99.90;;;;;;5011347;28;20236;-65
2023/03/21 09:13:38;;;;;;;0.88;0.75;;;12.80;99.90;;;;;;5011751;28;20644;-66
2023/03/21 09:16:07;;;;;;;1.00;0.90;;;12.80;99.90;;;;;;5020553;28;20663;-66
2023/03/21 09:18:45;;;;;;;1.33;1.23;;;12.80;99.90;;;;;;5003365;28;20317;-65
2023/03/21 09:21:15;;;;;;;0.70;0.50;;;12.90;99.90;;;;;;5011313;28;20212;-65
2023/03/21 09:23:45;;;;;;;0.68;0.60;;;12.90;99.90;;;;;;5011423;28;20296;-66
2023/03/21 09:26:13;;;;;;;0.85;0.60;;;12.90;99.90;;;;;;5011114;28;20231;-65
2023/03/21 09:28:41;;;;;;;0.50;0.40;;;12.90;99.90;;;;;;5011095;28;20229;-65
2023/03/21 09:31:11;;;;;;;0.60;0.47;;;12.80;99.90;;;;;;5010915;28;20206;-65
2023/03/21 09:33:41;;;;;;;0.70;0.70;;;12.70;99.90;;;;;;5011126;28;20578;-65
2023/03/21 09:36:12;;;;;;;0.80;0.77;;;12.70;99.90;;;;;;5011351;28;20201;-65
2023/03/21 09:38:44;;;;;;;0.57;0.40;;;12.70;99.90;;;;;;5003811;28;20304;-65
2023/03/21 09:41:25;;;;;;;0.60;0.50;;;12.70;99.90;;;;;;5010588;28;20514;-65
2023/03/21 09:44:09;;;;;;;1.00;0.65;;;13.00;99.90;;;;;;5011345;28;20205;-65
2023/03/21 09:46:43;;;;;;;0.60;0.60;;;12.90;99.90;;;;;;5011241;28;20220;-65
2023/03/21 09:49:19;;;;;;;1.25;1.10;;;12.90;99.90;;;;;;5010777;28;20221;-65
2023/03/21 09:51:51;;;;;;;0.80;0.60;;;12.90;99.90;;;;;;5011018;28;20235;-65
2023/03/21 09:54:26;;;;;;;0.60;0.40;;;13.10;99.90;;;;;;5014704;28;20220;-65
2023/03/21 09:56:57;;;;;;;0.60;0.50;;;13.30;99.90;;;;;;5015184;28;20208;-65
2023/03/21 09:59:31;;;;;;;1.17;0.82;;;13.40;99.90;;;;;;5014562;28;20241;-65
2023/03/21 10:02:02;;;;;;;2.28;0.80;;;13.70;99.90;;;;;;5014977;28;20204;-66
2023/03/21 10:04:32;;;;;;;0.68;0.60;;;13.80;99.90;;;;;;5014588;28;20219;-65
2023/03/21 10:07:02;;;;;;;0.70;0.70;;;13.70;99.90;;;;;;5014673;28;20275;-65
2023/03/21 10:09:32;;;;;;;1.02;0.80;;;13.40;99.90;;;;;;5015419;28;20264;-66
2023/03/21 10:12:04;;;;;;;0.65;0.52;;;13.40;99.90;;;;;;5015259;28;20236;-66
2023/03/21 10:14:35;;;;;;;1.75;1.35;;;13.40;99.90;;;;;;5013896;28;20699;-66
2023/03/21 10:17:18;;;;;;;2.38;0.60;;;13.40;99.90;;;;;;5015227;28;20740;-65
2023/03/21 10:19:49;;;;;;;0.77;0.60;;;13.50;99.90;;;;;;5015232;28;20210;-65
2023/03/21 10:22:17;;;;;;;0.60;0.40;;;13.30;99.90;;;;;;5014055;28;20292;-65
2023/03/21 10:24:45;;;;;;;1.35;1.08;;;12.90;99.90;;;;;;5014128;28;20237;-65
2023/03/21 10:27:13;;;;;;;1.10;1.00;;;12.80;99.90;;;;;;5014183;28;20309;-65
2023/03/21 10:29:44;;;;;;;0.82;0.82;;;12.70;99.90;;;;;;5014204;28;20308;-65
2023/03/21 10:32:14;;;;;;;2.15;1.30;;;12.70;99.90;;;;;;5014474;28;20293;-67
2023/03/21 10:34:45;;;;;;;0.60;0.50;;;12.60;99.90;;;;;;5006809;28;20259;-65
2023/03/21 10:37:16;;;;;;;3.28;1.38;;;12.70;99.90;;;;;;5013847;28;20686;-64
2023/03/21 10:39:47;;;;;;;1.65;1.40;;;12.60;99.90;;;;;;5014007;28;20225;-65
2023/03/21 10:42:20;;;;;;;0.70;0.60;;;12.50;99.90;;;;;;5013881;28;20301;-64
2023/03/21 10:44:50;;;;;;;1.70;0.70;;;12.50;99.90;;;;;;5018935;28;20201;-65
2023/03/21 10:47:20;;;;;;;0.70;0.70;;;12.40;99.90;;;;;;5024793;28;20224;-65
2023/03/21 10:49:48;;;;;;;2.08;0.60;;;12.40;99.90;;;;;;5014280;28;20665;-65
2023/03/21 10:52:37;;;;;;;0.63;0.50;;;12.30;99.90;;;;;;5013731;28;20217;-65
2023/03/21 10:55:08;;;;;;;1.17;0.88;;;12.20;99.90;;;;;;5013904;28;20213;-66
2023/03/21 10:57:46;;;;;;;0.60;0.50;;;12.30;99.90;;;;;;5006610;28;20283;-64
2023/03/21 11:00:20;;;;;;;0.80;0.60;;;12.20;99.90;;;;;;5013672;28;20205;-65
2023/03/21 11:02:50;;;;;;;0.60;0.40;;;12.30;99.90;;;;;;5013867;28;20207;-64
2023/03/21 11:05:21;;;;;;;0.65;0.60;;;12.20;99.90;;;;;;5012840;28;20243;-64
2023/03/21 11:08:02;;;;;;;0.60;0.50;;;12.20;99.90;;;;;;5013651;28;20229;-64
2023/03/21 11:10:33;;;;;;;0.70;0.70;;;12.20;99.90;;;;;;5013646;28;20283;-64
2023/03/21 11:13:06;;;;;;;0.60;0.50;;;12.20;99.90;;;;;;5013346;28;20237;-63
2023/03/21 11:15:42;;;;;;;0.52;0.38;;;12.20;99.90;;;;;;5024190;28;20636;-64
2023/03/21 11:18:17;;;;;;;0.60;0.50;;;12.10;99.90;;;;;;5025733;28;20252;-64
2023/03/21 11:20:50;;;;;;;0.93;0.77;;;12.10;99.90;;;;;;5013558;28;20212;-64
2023/03/21 11:23:20;;;;;;;0.90;0.63;;;12.20;99.90;;;;;;5013126;28;20231;-64
2023/03/21 11:25:50;;;;;;;0.50;0.40;;;12.20;99.90;;;;;;5013776;28;20233;-64
2023/03/21 11:28:22;;;;;;;0.50;0.30;;;11.90;99.90;;;;;;5013121;28;20665;-64
2023/03/21 11:30:53;;;;;;;0.50;0.40;;;12.00;99.90;;;;;;5013500;28;20281;-65
2023/03/21 11:33:22;;;;;;;0.60;0.40;;;11.90;99.90;;;;;;5012752;28;20255;-65
2023/03/21 11:36:01;;;;;;;0.60;0.55;;;11.90;99.90;;;;;;5013150;28;20660;-64
2023/03/21 11:38:33;;;;;;;0.73;0.73;;;11.90;99.90;;;;;;5012909;28;20312;-65
2023/03/21 11:41:02;;;;;;;0.60;0.50;;;11.90;99.90;;;;;;5013235;28;20248;-65
2023/03/21 11:43:51;;;;;;;0.70;0.50;;;11.80;99.90;;;;;;5012751;28;20247;-65
2023/03/21 11:46:24;;;;;;;0.75;0.70;;;11.90;99.90;;;;;;5026198;28;20262;-64
2023/03/21 11:48:52;;;;;;;0.75;0.60;;;11.80;99.90;;;;;;5012966;28;20221;-65
2023/03/21 11:51:28;;;;;;;0.52;0.43;;;11.90;99.90;;;;;;5012691;28;20219;-64
2023/03/21 11:54:05;;;;;;;0.63;0.57;;;12.10;99.90;;;;;;5012801;28;20236;-65
2023/03/21 11:56:36;;;;;;;0.68;0.57;;;12.10;99.90;;;;;;5012683;28;20263;-65
2023/03/21 11:59:29;;;;;;;1.75;1.10;;;12.20;99.90;;;;;;5012188;28;20312;-65
2023/03/21 12:02:15;;;;;;;0.60;0.50;;;12.30;99.90;;;;;;5006743;28;20263;-65
2023/03/21 12:04:46;;;;;;;0.60;0.43;;;12.60;99.90;;;;;;5012592;28;20703;-64
2023/03/21 12:07:42;;;;;;;0.60;0.57;;;12.60;99.90;;;;;;5012583;28;20205;-64
2023/03/21 12:10:40;;;;;;;0.60;0.50;;;12.80;99.90;;;;;;5008221;28;20300;-64
2023/03/21 12:13:19;;;;;;;0.95;0.40;;;12.80;99.90;;;;;;4991073;28;20758;-63
2023/03/21 12:15:54;;;;;;;0.80;0.70;;;12.80;99.90;;;;;;5021941;28;20287;-64
2023/03/21 12:18:40;;;;;;;0.60;0.57;;;12.80;99.90;;;;;;5014954;28;20217;-65
2023/03/21 12:21:15;;;;;;;0.80;0.70;;;12.80;99.90;;;;;;5012316;28;20239;-66
2023/03/21 12:23:56;;;;;;;0.68;0.60;;;12.70;99.90;;;;;;5011764;28;20330;-66
2023/03/21 12:26:28;;;;;;;0.60;0.60;;;12.60;99.90;;;;;;5012273;28;20309;-66
2023/03/21 12:29:15;;;;;;;0.60;0.60;;;12.60;99.90;;;;;;5012198;28;20594;-66
2023/03/21 12:31:57;;;;;;;0.68;0.65;;;12.50;99.90;;;;;;5012024;28;20213;-65
2023/03/21 12:34:38;;;;;;;1.13;0.75;;;12.40;99.90;;;;;;5012070;28;20555;-68
2023/03/21 12:37:16;;;;;;;0.60;0.60;;;12.40;99.90;;;;;;5012230;28;20329;-66
2023/03/21 12:39:47;;;;;;;1.15;1.05;;;12.20;99.90;;;;;;5011993;28;20252;-66
2023/03/21 12:42:50;;;;;;;0.60;0.40;;;12.20;99.90;;;;;;5011895;28;20292;-65
2023/03/21 12:45:23;;;;;;;0.70;0.60;;;12.20;99.90;;;;;;5004868;28;20268;-66
2023/03/21 12:48:02;;;;;;;0.60;0.60;;;12.10;99.90;;;;;;5013282;28;20377;-65
2023/03/21 12:50:36;;;;;;;0.93;0.80;;;12.10;99.90;;;;;;5011658;28;20213;-66
2023/03/21 12:53:20;;;;;;;0.98;0.98;;;11.90;99.90;;;;;;5011811;28;20288;-65
2023/03/21 12:55:48;;;;;;;0.50;0.40;;;11.80;99.90;;;;;;5011812;28;20621;-66
2023/03/21 12:58:23;;;;;;;1.02;0.88;;;11.90;99.90;;;;;;5011526;28;20320;-66
2023/03/21 13:00:54;;;;;;;4.75;1.08;;;11.90;99.90;;;;;;5011701;28;20255;-66
2023/03/21 13:03:28;;;;;;;0.80;0.75;;;12.10;99.90;;;;;;5011161;28;20221;-64
2023/03/21 13:06:09;;;;;;;0.80;0.60;;;12.20;99.90;;;;;;5011709;28;20617;-66
2023/03/21 13:08:40;;;;;;;1.00;0.55;;;12.30;99.90;;;;;;5011373;28;20698;-66
2023/03/21 13:11:13;;;;;;;0.60;0.55;;;12.20;99.90;;;;;;5011580;28;20205;-66
2023/03/21 13:13:47;;;;;;;1.58;1.35;;;12.30;99.90;;;;;;5011161;28;21328;-66
2023/03/21 13:16:20;;;;;;;0.60;0.50;;;12.40;99.90;;;;;;5026992;28;20291;-66
2023/03/21 13:19:05;;;;;;;0.50;0.50;;;12.30;99.90;;;;;;5019272;28;20221;-64